sensor_id;sensor_type;location;lat;lon;timestamp;P1;durP1;ratioP1;P2;durP2;ratioP2
42200;SDS011;27869;51.442;7.540;2023-06-22T00:00:52;9.75;;;2.70;;
42200;SDS011;27869;51.442;7.540;2023-06-22T00:03:20;9.45;;;2.88;;
42200;SDS011;27869;51.442;7.540;2023-06-22T00:05:48;11.75;;;3.10;;
42200;SDS011;27869;51.442;7.540;2023-06-22T00:08:15;11.07;;;2.95;;
42200;SDS011;27869;51.442;7.540;2023-06-22T00:10:42;8.55;;;2.60;;
42200;SDS011;27869;51.442;7.540;2023-06-22T00:13:10;9.95;;;2.90;;
42200;SDS011;27869;51.442;7.540;2023-06-22T00:15:40;9.60;;;2.95;;
42200;SDS011;27869;51.442;7.540;2023-06-22T00:18:08;8.25;;;2.63;;
42200;SDS011;27869;51.442;7.540;2023-06-22T00:20:36;10.90;;;3.00;;
42200;SDS011;27869;51.442;7.540;2023-06-22T00:23:03;10.02;;;2.88;;
42200;SDS011;27869;51.442;7.540;2023-06-22T00:25:33;10.43;;;3.00;;
42200;SDS011;27869;51.442;7.540;2023-06-22T00:28:00;9.60;;;3.15;;
42200;SDS011;27869;51.442;7.540;2023-06-22T00:30:27;10.15;;;2.97;;
42200;SDS011;27869;51.442;7.540;2023-06-22T00:32:55;9.43;;;2.97;;
42200;SDS011;27869;51.442;7.540;2023-06-22T00:35:22;10.52;;;2.83;;
42200;SDS011;27869;51.442;7.540;2023-06-22T00:37:53;10.82;;;3.10;;
42200;SDS011;27869;51.442;7.540;2023-06-22T00:40:25;10.70;;;3.10;;
42200;SDS011;27869;51.442;7.540;2023-06-22T00:42:52;10.73;;;3.13;;
42200;SDS011;27869;51.442;7.540;2023-06-22T00:45:20;11.63;;;3.10;;
42200;SDS011;27869;51.442;7.540;2023-06-22T00:47:48;10.02;;;3.10;;
42200;SDS011;27869;51.442;7.540;2023-06-22T00:50:17;11.52;;;3.38;;
42200;SDS011;27869;51.442;7.540;2023-06-22T00:52:47;10.10;;;2.72;;
42200;SDS011;27869;51.442;7.540;2023-06-22T00:55:17;10.63;;;3.22;;
42200;SDS011;27869;51.442;7.540;2023-06-22T00:57:45;11.75;;;3.90;;
42200;SDS011;27869;51.442;7.540;2023-06-22T01:00:13;10.98;;;3.28;;
42200;SDS011;27869;51.442;7.540;2023-06-22T01:02:45;11.85;;;3.85;;
42200;SDS011;27869;51.442;7.540;2023-06-22T01:05:17;11.02;;;3.00;;
42200;SDS011;27869;51.442;7.540;2023-06-22T01:07:48;13.82;;;3.70;;
42200;SDS011;27869;51.442;7.540;2023-06-22T01:10:23;11.23;;;3.17;;
42200;SDS011;27869;51.442;7.540;2023-06-22T01:12:56;11.07;;;3.25;;
42200;SDS011;27869;51.442;7.540;2023-06-22T01:15:27;10.07;;;3.42;;
42200;SDS011;27869;51.442;7.540;2023-06-22T01:17:57;11.95;;;3.40;;
42200;SDS011;27869;51.442;7.540;2023-06-22T01:20:27;10.88;;;3.10;;
42200;SDS011;27869;51.442;7.540;2023-06-22T01:23:00;15.27;;;3.30;;
42200;SDS011;27869;51.442;7.540;2023-06-22T01:25:34;12.35;;;3.85;;
42200;SDS011;27869;51.442;7.540;2023-06-22T01:28:10;10.05;;;3.05;;
42200;SDS011;27869;51.442;7.540;2023-06-22T01:30:47;12.05;;;3.65;;
42200;SDS011;27869;51.442;7.540;2023-06-22T01:33:30;10.27;;;3.10;;
42200;SDS011;27869;51.442;7.540;2023-06-22T01:36:00;11.38;;;2.85;;
42200;SDS011;27869;51.442;7.540;2023-06-22T01:38:28;10.35;;;3.40;;
42200;SDS011;27869;51.442;7.540;2023-06-22T01:40:56;9.95;;;3.08;;
42200;SDS011;27869;51.442;7.540;2023-06-22T01:43:24;10.80;;;3.28;;
42200;SDS011;27869;51.442;7.540;2023-06-22T01:45:54;11.35;;;3.67;;
42200;SDS011;27869;51.442;7.540;2023-06-22T01:48:22;11.43;;;3.35;;
42200;SDS011;27869;51.442;7.540;2023-06-22T01:50:51;11.15;;;3.35;;
42200;SDS011;27869;51.442;7.540;2023-06-22T01:53:20;10.25;;;3.22;;
42200;SDS011;27869;51.442;7.540;2023-06-22T01:55:47;12.27;;;3.88;;
42200;SDS011;27869;51.442;7.540;2023-06-22T01:58:14;10.43;;;3.38;;
42200;SDS011;27869;51.442;7.540;2023-06-22T02:00:43;10.70;;;3.50;;
42200;SDS011;27869;51.442;7.540;2023-06-22T02:03:17;10.77;;;3.75;;
42200;SDS011;27869;51.442;7.540;2023-06-22T02:05:48;16.13;;;4.13;;
42200;SDS011;27869;51.442;7.540;2023-06-22T02:08:19;10.68;;;3.17;;
42200;SDS011;27869;51.442;7.540;2023-06-22T02:10:48;10.82;;;3.15;;
42200;SDS011;27869;51.442;7.540;2023-06-22T02:13:16;12.13;;;3.50;;
42200;SDS011;27869;51.442;7.540;2023-06-22T02:15:44;12.00;;;3.17;;
42200;SDS011;27869;51.442;7.540;2023-06-22T02:18:12;13.52;;;3.33;;
42200;SDS011;27869;51.442;7.540;2023-06-22T02:20:41;13.10;;;3.60;;
42200;SDS011;27869;51.442;7.540;2023-06-22T02:23:08;11.30;;;3.45;;
42200;SDS011;27869;51.442;7.540;2023-06-22T02:25:35;11.73;;;3.53;;
42200;SDS011;27869;51.442;7.540;2023-06-22T02:28:02;11.95;;;3.63;;
42200;SDS011;27869;51.442;7.540;2023-06-22T02:30:29;12.95;;;3.88;;
42200;SDS011;27869;51.442;7.540;2023-06-22T02:32:56;12.05;;;3.65;;
42200;SDS011;27869;51.442;7.540;2023-06-22T02:35:25;10.50;;;3.28;;
42200;SDS011;27869;51.442;7.540;2023-06-22T02:37:53;10.45;;;3.50;;
42200;SDS011;27869;51.442;7.540;2023-06-22T02:40:20;11.20;;;3.55;;
42200;SDS011;27869;51.442;7.540;2023-06-22T02:42:47;13.30;;;4.05;;
42200;SDS011;27869;51.442;7.540;2023-06-22T02:45:14;10.43;;;3.40;;
42200;SDS011;27869;51.442;7.540;2023-06-22T02:47:41;11.20;;;3.63;;
42200;SDS011;27869;51.442;7.540;2023-06-22T02:50:08;11.48;;;3.63;;
42200;SDS011;27869;51.442;7.540;2023-06-22T02:52:35;11.50;;;3.45;;
42200;SDS011;27869;51.442;7.540;2023-06-22T02:55:05;13.45;;;3.67;;
42200;SDS011;27869;51.442;7.540;2023-06-22T02:57:33;12.15;;;4.45;;
42200;SDS011;27869;51.442;7.540;2023-06-22T03:00:02;10.20;;;3.15;;
42200;SDS011;27869;51.442;7.540;2023-06-22T03:02:41;10.48;;;3.40;;
42200;SDS011;27869;51.442;7.540;2023-06-22T03:05:08;9.77;;;3.10;;
42200;SDS011;27869;51.442;7.540;2023-06-22T03:07:38;13.07;;;3.78;;
42200;SDS011;27869;51.442;7.540;2023-06-22T03:10:07;12.40;;;3.65;;
42200;SDS011;27869;51.442;7.540;2023-06-22T03:12:35;10.45;;;2.92;;
42200;SDS011;27869;51.442;7.540;2023-06-22T03:15:02;10.10;;;3.20;;
42200;SDS011;27869;51.442;7.540;2023-06-22T03:17:30;12.25;;;3.70;;
42200;SDS011;27869;51.442;7.540;2023-06-22T03:19:57;9.85;;;3.30;;
42200;SDS011;27869;51.442;7.540;2023-06-22T03:22:23;12.00;;;3.83;;
42200;SDS011;27869;51.442;7.540;2023-06-22T03:24:50;11.75;;;3.88;;
42200;SDS011;27869;51.442;7.540;2023-06-22T03:27:18;13.98;;;3.67;;
42200;SDS011;27869;51.442;7.540;2023-06-22T03:29:45;13.55;;;5.05;;
42200;SDS011;27869;51.442;7.540;2023-06-22T03:32:12;12.52;;;3.60;;
42200;SDS011;27869;51.442;7.540;2023-06-22T03:34:39;10.82;;;3.55;;
42200;SDS011;27869;51.442;7.540;2023-06-22T03:37:06;12.13;;;3.78;;
42200;SDS011;27869;51.442;7.540;2023-06-22T03:39:33;15.60;;;4.00;;
42200;SDS011;27869;51.442;7.540;2023-06-22T03:41:59;14.85;;;4.05;;
42200;SDS011;27869;51.442;7.540;2023-06-22T03:44:28;12.00;;;3.70;;
42200;SDS011;27869;51.442;7.540;2023-06-22T03:46:54;11.20;;;3.38;;
42200;SDS011;27869;51.442;7.540;2023-06-22T03:49:21;13.73;;;3.63;;
42200;SDS011;27869;51.442;7.540;2023-06-22T03:51:48;11.68;;;4.18;;
42200;SDS011;27869;51.442;7.540;2023-06-22T03:54:15;14.25;;;4.32;;
42200;SDS011;27869;51.442;7.540;2023-06-22T03:56:42;14.30;;;5.05;;
42200;SDS011;27869;51.442;7.540;2023-06-22T03:59:08;12.15;;;4.18;;
42200;SDS011;27869;51.442;7.540;2023-06-22T04:01:37;10.07;;;3.47;;
42200;SDS011;27869;51.442;7.540;2023-06-22T04:04:04;11.98;;;3.90;;
42200;SDS011;27869;51.442;7.540;2023-06-22T04:06:32;14.00;;;4.05;;
42200;SDS011;27869;51.442;7.540;2023-06-22T04:08:59;13.95;;;3.85;;
42200;SDS011;27869;51.442;7.540;2023-06-22T04:11:26;13.35;;;4.55;;
42200;SDS011;27869;51.442;7.540;2023-06-22T04:13:53;12.40;;;4.78;;
42200;SDS011;27869;51.442;7.540;2023-06-22T04:16:20;12.90;;;4.53;;
42200;SDS011;27869;51.442;7.540;2023-06-22T04:18:48;12.45;;;4.40;;
42200;SDS011;27869;51.442;7.540;2023-06-22T04:21:15;12.13;;;4.38;;
42200;SDS011;27869;51.442;7.540;2023-06-22T04:23:42;12.93;;;4.30;;
42200;SDS011;27869;51.442;7.540;2023-06-22T04:26:09;13.38;;;4.57;;
42200;SDS011;27869;51.442;7.540;2023-06-22T04:28:36;11.48;;;4.35;;
42200;SDS011;27869;51.442;7.540;2023-06-22T04:31:02;14.75;;;6.13;;
42200;SDS011;27869;51.442;7.540;2023-06-22T04:33:31;15.30;;;6.55;;
42200;SDS011;27869;51.442;7.540;2023-06-22T04:35:59;15.02;;;6.47;;
42200;SDS011;27869;51.442;7.540;2023-06-22T04:38:26;13.98;;;4.78;;
42200;SDS011;27869;51.442;7.540;2023-06-22T04:40:53;15.77;;;6.45;;
42200;SDS011;27869;51.442;7.540;2023-06-22T04:43:20;13.82;;;5.15;;
42200;SDS011;27869;51.442;7.540;2023-06-22T04:45:47;13.50;;;5.65;;
42200;SDS011;27869;51.442;7.540;2023-06-22T04:48:17;17.05;;;7.07;;
42200;SDS011;27869;51.442;7.540;2023-06-22T04:50:44;17.17;;;6.47;;
42200;SDS011;27869;51.442;7.540;2023-06-22T04:53:12;16.65;;;6.05;;
42200;SDS011;27869;51.442;7.540;2023-06-22T04:55:39;15.18;;;6.47;;
42200;SDS011;27869;51.442;7.540;2023-06-22T04:58:10;16.50;;;6.57;;
42200;SDS011;27869;51.442;7.540;2023-06-22T05:00:38;15.23;;;5.95;;
42200;SDS011;27869;51.442;7.540;2023-06-22T05:03:05;16.38;;;6.63;;
42200;SDS011;27869;51.442;7.540;2023-06-22T05:05:36;16.73;;;6.50;;
42200;SDS011;27869;51.442;7.540;2023-06-22T05:08:03;22.40;;;9.82;;
42200;SDS011;27869;51.442;7.540;2023-06-22T05:12:59;19.17;;;7.97;;
42200;SDS011;27869;51.442;7.540;2023-06-22T05:15:26;17.27;;;7.32;;
42200;SDS011;27869;51.442;7.540;2023-06-22T05:17:55;15.82;;;6.43;;
42200;SDS011;27869;51.442;7.540;2023-06-22T05:20:23;15.57;;;7.07;;
42200;SDS011;27869;51.442;7.540;2023-06-22T05:22:50;18.55;;;7.65;;
42200;SDS011;27869;51.442;7.540;2023-06-22T05:25:17;16.48;;;6.78;;
42200;SDS011;27869;51.442;7.540;2023-06-22T05:27:45;20.83;;;8.60;;
42200;SDS011;27869;51.442;7.540;2023-06-22T05:30:12;17.30;;;7.63;;
42200;SDS011;27869;51.442;7.540;2023-06-22T05:32:41;20.25;;;8.23;;
42200;SDS011;27869;51.442;7.540;2023-06-22T05:35:09;17.17;;;7.28;;
42200;SDS011;27869;51.442;7.540;2023-06-22T05:37:36;16.35;;;7.47;;
42200;SDS011;27869;51.442;7.540;2023-06-22T05:40:03;15.90;;;7.35;;
42200;SDS011;27869;51.442;7.540;2023-06-22T05:42:32;16.23;;;7.50;;
42200;SDS011;27869;51.442;7.540;2023-06-22T05:45:00;15.55;;;7.03;;
42200;SDS011;27869;51.442;7.540;2023-06-22T05:47:27;17.98;;;7.28;;
42200;SDS011;27869;51.442;7.540;2023-06-22T05:49:54;17.52;;;8.60;;
42200;SDS011;27869;51.442;7.540;2023-06-22T05:52:20;23.20;;;10.77;;
42200;SDS011;27869;51.442;7.540;2023-06-22T05:54:47;21.23;;;10.98;;
42200;SDS011;27869;51.442;7.540;2023-06-22T05:57:14;19.55;;;10.77;;
42200;SDS011;27869;51.442;7.540;2023-06-22T05:59:41;18.23;;;9.70;;
42200;SDS011;27869;51.442;7.540;2023-06-22T06:02:09;25.38;;;10.90;;
42200;SDS011;27869;51.442;7.540;2023-06-22T06:04:36;21.85;;;10.30;;
42200;SDS011;27869;51.442;7.540;2023-06-22T06:07:06;18.60;;;8.52;;
42200;SDS011;27869;51.442;7.540;2023-06-22T06:09:33;17.67;;;9.23;;
42200;SDS011;27869;51.442;7.540;2023-06-22T06:12:00;18.17;;;7.90;;
42200;SDS011;27869;51.442;7.540;2023-06-22T06:14:28;17.85;;;8.95;;
42200;SDS011;27869;51.442;7.540;2023-06-22T06:16:54;23.45;;;10.20;;
42200;SDS011;27869;51.442;7.540;2023-06-22T06:19:23;21.27;;;9.40;;
42200;SDS011;27869;51.442;7.540;2023-06-22T06:21:49;19.38;;;8.52;;
42200;SDS011;27869;51.442;7.540;2023-06-22T06:24:16;18.05;;;7.75;;
42200;SDS011;27869;51.442;7.540;2023-06-22T06:26:43;17.15;;;8.63;;
42200;SDS011;27869;51.442;7.540;2023-06-22T06:29:10;18.33;;;7.70;;
42200;SDS011;27869;51.442;7.540;2023-06-22T06:31:36;16.05;;;8.38;;
42200;SDS011;27869;51.442;7.540;2023-06-22T06:34:03;16.83;;;8.60;;
42200;SDS011;27869;51.442;7.540;2023-06-22T06:36:31;17.83;;;8.63;;
42200;SDS011;27869;51.442;7.540;2023-06-22T06:38:58;17.15;;;8.10;;
42200;SDS011;27869;51.442;7.540;2023-06-22T06:41:25;18.83;;;8.68;;
42200;SDS011;27869;51.442;7.540;2023-06-22T06:43:52;16.92;;;8.38;;
42200;SDS011;27869;51.442;7.540;2023-06-22T06:46:19;16.25;;;8.30;;
42200;SDS011;27869;51.442;7.540;2023-06-22T06:48:46;15.82;;;8.02;;
42200;SDS011;27869;51.442;7.540;2023-06-22T06:51:13;18.40;;;9.15;;
42200;SDS011;27869;51.442;7.540;2023-06-22T06:53:41;17.63;;;9.00;;
42200;SDS011;27869;51.442;7.540;2023-06-22T06:56:08;18.40;;;9.05;;
42200;SDS011;27869;51.442;7.540;2023-06-22T06:58:35;17.90;;;8.68;;
42200;SDS011;27869;51.442;7.540;2023-06-22T07:01:02;21.95;;;8.65;;
42200;SDS011;27869;51.442;7.540;2023-06-22T07:03:29;15.55;;;7.57;;
42200;SDS011;27869;51.442;7.540;2023-06-22T07:05:58;18.52;;;8.35;;
42200;SDS011;27869;51.442;7.540;2023-06-22T07:08:25;15.65;;;6.85;;
42200;SDS011;27869;51.442;7.540;2023-06-22T07:10:53;15.48;;;7.43;;
42200;SDS011;27869;51.442;7.540;2023-06-22T07:13:20;16.20;;;7.90;;
42200;SDS011;27869;51.442;7.540;2023-06-22T07:15:47;16.48;;;7.72;;
42200;SDS011;27869;51.442;7.540;2023-06-22T07:18:14;18.45;;;8.68;;
42200;SDS011;27869;51.442;7.540;2023-06-22T07:20:40;16.55;;;7.95;;
42200;SDS011;27869;51.442;7.540;2023-06-22T07:23:07;17.02;;;8.85;;
42200;SDS011;27869;51.442;7.540;2023-06-22T07:25:34;20.08;;;9.85;;
42200;SDS011;27869;51.442;7.540;2023-06-22T07:28:03;22.00;;;10.73;;
42200;SDS011;27869;51.442;7.540;2023-06-22T07:30:31;19.65;;;10.32;;
42200;SDS011;27869;51.442;7.540;2023-06-22T07:32:59;19.77;;;10.57;;
42200;SDS011;27869;51.442;7.540;2023-06-22T07:35:29;17.95;;;10.10;;
42200;SDS011;27869;51.442;7.540;2023-06-22T07:37:56;19.02;;;9.90;;
42200;SDS011;27869;51.442;7.540;2023-06-22T07:40:23;17.20;;;8.95;;
42200;SDS011;27869;51.442;7.540;2023-06-22T07:42:50;19.15;;;8.95;;
42200;SDS011;27869;51.442;7.540;2023-06-22T07:45:19;21.33;;;8.82;;
42200;SDS011;27869;51.442;7.540;2023-06-22T07:47:46;16.90;;;8.68;;
42200;SDS011;27869;51.442;7.540;2023-06-22T07:50:13;15.57;;;8.05;;
42200;SDS011;27869;51.442;7.540;2023-06-22T07:52:40;15.57;;;8.07;;
42200;SDS011;27869;51.442;7.540;2023-06-22T07:55:08;15.60;;;7.80;;
42200;SDS011;27869;51.442;7.540;2023-06-22T07:57:35;15.93;;;8.40;;
42200;SDS011;27869;51.442;7.540;2023-06-22T08:00:02;15.45;;;7.30;;
42200;SDS011;27869;51.442;7.540;2023-06-22T08:02:39;15.50;;;7.70;;
42200;SDS011;27869;51.442;7.540;2023-06-22T08:05:06;14.65;;;7.45;;
42200;SDS011;27869;51.442;7.540;2023-06-22T08:07:34;14.07;;;7.13;;
42200;SDS011;27869;51.442;7.540;2023-06-22T08:10:02;16.98;;;7.53;;
42200;SDS011;27869;51.442;7.540;2023-06-22T08:12:29;13.82;;;7.07;;
42200;SDS011;27869;51.442;7.540;2023-06-22T08:14:56;14.55;;;7.35;;
42200;SDS011;27869;51.442;7.540;2023-06-22T08:17:23;14.38;;;6.57;;
42200;SDS011;27869;51.442;7.540;2023-06-22T08:19:52;14.40;;;6.80;;
42200;SDS011;27869;51.442;7.540;2023-06-22T08:22:19;13.68;;;6.90;;
42200;SDS011;27869;51.442;7.540;2023-06-22T08:24:45;14.38;;;6.97;;
42200;SDS011;27869;51.442;7.540;2023-06-22T08:27:12;15.95;;;7.28;;
42200;SDS011;27869;51.442;7.540;2023-06-22T08:29:39;14.15;;;7.03;;
42200;SDS011;27869;51.442;7.540;2023-06-22T08:32:08;14.73;;;7.70;;
42200;SDS011;27869;51.442;7.540;2023-06-22T08:34:35;15.75;;;7.25;;
42200;SDS011;27869;51.442;7.540;2023-06-22T08:37:08;15.50;;;6.97;;
42200;SDS011;27869;51.442;7.540;2023-06-22T08:39:35;14.25;;;7.35;;
42200;SDS011;27869;51.442;7.540;2023-06-22T08:42:04;15.98;;;7.07;;
42200;SDS011;27869;51.442;7.540;2023-06-22T08:44:31;14.35;;;7.13;;
42200;SDS011;27869;51.442;7.540;2023-06-22T08:46:58;15.45;;;7.93;;
42200;SDS011;27869;51.442;7.540;2023-06-22T08:49:25;13.80;;;6.85;;
42200;SDS011;27869;51.442;7.540;2023-06-22T08:51:52;16.98;;;8.07;;
42200;SDS011;27869;51.442;7.540;2023-06-22T08:54:22;14.77;;;7.32;;
42200;SDS011;27869;51.442;7.540;2023-06-22T08:56:49;19.33;;;7.90;;
42200;SDS011;27869;51.442;7.540;2023-06-22T08:59:16;15.35;;;8.18;;
42200;SDS011;27869;51.442;7.540;2023-06-22T09:01:42;16.02;;;7.68;;
42200;SDS011;27869;51.442;7.540;2023-06-22T09:04:10;14.07;;;7.30;;
42200;SDS011;27869;51.442;7.540;2023-06-22T09:06:37;15.30;;;7.78;;
42200;SDS011;27869;51.442;7.540;2023-06-22T09:09:09;15.98;;;8.32;;
42200;SDS011;27869;51.442;7.540;2023-06-22T09:11:38;16.90;;;7.40;;
42200;SDS011;27869;51.442;7.540;2023-06-22T09:14:05;17.45;;;7.18;;
42200;SDS011;27869;51.442;7.540;2023-06-22T09:16:32;16.65;;;7.78;;
42200;SDS011;27869;51.442;7.540;2023-06-22T09:18:59;14.70;;;6.78;;
42200;SDS011;27869;51.442;7.540;2023-06-22T09:21:25;15.27;;;6.78;;
42200;SDS011;27869;51.442;7.540;2023-06-22T09:23:52;15.82;;;7.03;;
42200;SDS011;27869;51.442;7.540;2023-06-22T09:26:20;16.20;;;8.20;;
42200;SDS011;27869;51.442;7.540;2023-06-22T09:28:49;15.55;;;7.50;;
42200;SDS011;27869;51.442;7.540;2023-06-22T09:31:15;15.80;;;8.13;;
42200;SDS011;27869;51.442;7.540;2023-06-22T09:33:42;15.07;;;7.45;;
42200;SDS011;27869;51.442;7.540;2023-06-22T09:36:09;16.45;;;7.18;;
42200;SDS011;27869;51.442;7.540;2023-06-22T09:38:36;14.75;;;6.95;;
42200;SDS011;27869;51.442;7.540;2023-06-22T09:41:04;15.93;;;7.13;;
42200;SDS011;27869;51.442;7.540;2023-06-22T09:43:31;15.95;;;8.07;;
42200;SDS011;27869;51.442;7.540;2023-06-22T09:48:28;14.98;;;7.50;;
42200;SDS011;27869;51.442;7.540;2023-06-22T09:50:55;15.32;;;7.45;;
42200;SDS011;27869;51.442;7.540;2023-06-22T09:53:22;16.15;;;7.85;;
42200;SDS011;27869;51.442;7.540;2023-06-22T09:55:49;15.90;;;7.88;;
42200;SDS011;27869;51.442;7.540;2023-06-22T09:58:16;17.58;;;8.25;;
42200;SDS011;27869;51.442;7.540;2023-06-22T10:00:43;17.52;;;8.52;;
42200;SDS011;27869;51.442;7.540;2023-06-22T10:03:11;16.83;;;8.10;;
42200;SDS011;27869;51.442;7.540;2023-06-22T10:05:38;16.73;;;7.75;;
42200;SDS011;27869;51.442;7.540;2023-06-22T10:08:05;15.52;;;7.93;;
42200;SDS011;27869;51.442;7.540;2023-06-22T10:10:34;14.35;;;6.80;;
42200;SDS011;27869;51.442;7.540;2023-06-22T10:13:02;14.27;;;6.82;;
42200;SDS011;27869;51.442;7.540;2023-06-22T10:15:34;15.10;;;7.10;;
42200;SDS011;27869;51.442;7.540;2023-06-22T10:18:01;14.07;;;6.35;;
42200;SDS011;27869;51.442;7.540;2023-06-22T10:20:30;14.27;;;6.55;;
42200;SDS011;27869;51.442;7.540;2023-06-22T10:22:56;12.98;;;6.07;;
42200;SDS011;27869;51.442;7.540;2023-06-22T10:25:23;14.10;;;6.03;;
42200;SDS011;27869;51.442;7.540;2023-06-22T10:27:50;14.73;;;6.57;;
42200;SDS011;27869;51.442;7.540;2023-06-22T10:30:17;14.98;;;6.38;;
42200;SDS011;27869;51.442;7.540;2023-06-22T10:32:44;13.43;;;6.43;;
42200;SDS011;27869;51.442;7.540;2023-06-22T10:35:11;14.27;;;6.55;;
42200;SDS011;27869;51.442;7.540;2023-06-22T10:37:40;16.00;;;7.20;;
42200;SDS011;27869;51.442;7.540;2023-06-22T10:40:08;14.45;;;6.00;;
42200;SDS011;27869;51.442;7.540;2023-06-22T10:42:36;13.32;;;5.85;;
42200;SDS011;27869;51.442;7.540;2023-06-22T10:45:03;14.68;;;6.20;;
42200;SDS011;27869;51.442;7.540;2023-06-22T10:47:30;15.05;;;6.05;;
42200;SDS011;27869;51.442;7.540;2023-06-22T10:49:57;16.10;;;7.03;;
42200;SDS011;27869;51.442;7.540;2023-06-22T10:52:23;12.98;;;5.68;;
42200;SDS011;27869;51.442;7.540;2023-06-22T10:54:52;14.32;;;6.60;;
42200;SDS011;27869;51.442;7.540;2023-06-22T10:57:18;14.75;;;6.28;;
42200;SDS011;27869;51.442;7.540;2023-06-22T10:59:45;14.60;;;6.45;;
42200;SDS011;27869;51.442;7.540;2023-06-22T11:02:12;14.07;;;6.68;;
42200;SDS011;27869;51.442;7.540;2023-06-22T11:04:39;14.50;;;6.53;;
42200;SDS011;27869;51.442;7.540;2023-06-22T11:07:06;13.18;;;6.10;;
42200;SDS011;27869;51.442;7.540;2023-06-22T11:09:32;14.25;;;5.90;;
42200;SDS011;27869;51.442;7.540;2023-06-22T11:12:01;12.88;;;5.38;;
42200;SDS011;27869;51.442;7.540;2023-06-22T11:14:28;15.32;;;6.05;;
42200;SDS011;27869;51.442;7.540;2023-06-22T11:16:54;17.15;;;6.55;;
42200;SDS011;27869;51.442;7.540;2023-06-22T11:19:21;15.93;;;5.55;;
42200;SDS011;27869;51.442;7.540;2023-06-22T11:21:48;13.95;;;6.22;;
42200;SDS011;27869;51.442;7.540;2023-06-22T11:24:15;13.40;;;5.90;;
42200;SDS011;27869;51.442;7.540;2023-06-22T11:26:42;15.98;;;6.68;;
42200;SDS011;27869;51.442;7.540;2023-06-22T11:29:11;13.60;;;5.63;;
42200;SDS011;27869;51.442;7.540;2023-06-22T11:31:38;16.45;;;6.18;;
42200;SDS011;27869;51.442;7.540;2023-06-22T11:34:05;13.93;;;5.85;;
42200;SDS011;27869;51.442;7.540;2023-06-22T11:36:32;14.75;;;6.82;;
42200;SDS011;27869;51.442;7.540;2023-06-22T11:39:00;16.02;;;6.90;;
42200;SDS011;27869;51.442;7.540;2023-06-22T11:41:27;15.95;;;6.38;;
42200;SDS011;27869;51.442;7.540;2023-06-22T11:43:54;14.48;;;6.75;;
42200;SDS011;27869;51.442;7.540;2023-06-22T11:46:22;16.15;;;6.95;;
42200;SDS011;27869;51.442;7.540;2023-06-22T11:48:49;17.23;;;7.15;;
42200;SDS011;27869;51.442;7.540;2023-06-22T11:51:16;15.68;;;7.35;;
42200;SDS011;27869;51.442;7.540;2023-06-22T11:53:43;17.60;;;8.00;;
42200;SDS011;27869;51.442;7.540;2023-06-22T11:56:10;16.50;;;7.80;;
42200;SDS011;27869;51.442;7.540;2023-06-22T11:58:37;18.15;;;7.82;;
42200;SDS011;27869;51.442;7.540;2023-06-22T12:01:03;19.60;;;7.95;;
42200;SDS011;27869;51.442;7.540;2023-06-22T12:03:32;18.88;;;8.63;;
42200;SDS011;27869;51.442;7.540;2023-06-22T12:05:59;16.70;;;7.80;;
42200;SDS011;27869;51.442;7.540;2023-06-22T12:08:26;18.63;;;8.27;;
42200;SDS011;27869;51.442;7.540;2023-06-22T12:10:53;16.63;;;8.80;;
42200;SDS011;27869;51.442;7.540;2023-06-22T12:13:20;17.20;;;7.97;;
42200;SDS011;27869;51.442;7.540;2023-06-22T12:15:47;18.83;;;8.80;;
42200;SDS011;27869;51.442;7.540;2023-06-22T12:18:14;16.95;;;8.30;;
42200;SDS011;27869;51.442;7.540;2023-06-22T12:20:42;18.27;;;8.43;;
42200;SDS011;27869;51.442;7.540;2023-06-22T12:25:36;17.25;;;8.82;;
42200;SDS011;27869;51.442;7.540;2023-06-22T12:28:03;16.83;;;8.18;;
42200;SDS011;27869;51.442;7.540;2023-06-22T12:30:30;19.25;;;9.50;;
42200;SDS011;27869;51.442;7.540;2023-06-22T12:32:58;17.67;;;8.95;;
42200;SDS011;27869;51.442;7.540;2023-06-22T12:35:25;18.65;;;8.45;;
42200;SDS011;27869;51.442;7.540;2023-06-22T12:37:53;18.95;;;9.30;;
42200;SDS011;27869;51.442;7.540;2023-06-22T12:40:20;16.27;;;7.88;;
42200;SDS011;27869;51.442;7.540;2023-06-22T12:42:47;19.25;;;8.45;;
42200;SDS011;27869;51.442;7.540;2023-06-22T12:45:14;19.23;;;8.18;;
42200;SDS011;27869;51.442;7.540;2023-06-22T12:47:41;17.15;;;8.07;;
42200;SDS011;27869;51.442;7.540;2023-06-22T12:50:08;18.40;;;7.72;;
42200;SDS011;27869;51.442;7.540;2023-06-22T12:52:36;17.98;;;8.13;;
42200;SDS011;27869;51.442;7.540;2023-06-22T12:55:06;16.17;;;8.32;;
42200;SDS011;27869;51.442;7.540;2023-06-22T12:57:33;16.05;;;7.90;;
42200;SDS011;27869;51.442;7.540;2023-06-22T13:00:00;22.88;;;7.95;;
42200;SDS011;27869;51.442;7.540;2023-06-22T13:02:28;17.55;;;9.10;;
42200;SDS011;27869;51.442;7.540;2023-06-22T13:04:55;15.70;;;7.95;;
42200;SDS011;27869;51.442;7.540;2023-06-22T13:07:22;16.23;;;8.07;;
42200;SDS011;27869;51.442;7.540;2023-06-22T13:09:49;16.13;;;7.70;;
42200;SDS011;27869;51.442;7.540;2023-06-22T13:12:19;18.10;;;8.27;;
42200;SDS011;27869;51.442;7.540;2023-06-22T13:14:46;15.77;;;7.32;;
42200;SDS011;27869;51.442;7.540;2023-06-22T13:17:13;17.17;;;7.97;;
42200;SDS011;27869;51.442;7.540;2023-06-22T13:19:40;14.75;;;7.25;;
42200;SDS011;27869;51.442;7.540;2023-06-22T13:22:24;17.58;;;7.05;;
42200;SDS011;27869;51.442;7.540;2023-06-22T13:24:56;15.30;;;6.90;;
42200;SDS011;27869;51.442;7.540;2023-06-22T13:27:24;14.05;;;6.70;;
42200;SDS011;27869;51.442;7.540;2023-06-22T13:29:52;15.18;;;7.03;;
42200;SDS011;27869;51.442;7.540;2023-06-22T13:32:19;16.45;;;6.97;;
42200;SDS011;27869;51.442;7.540;2023-06-22T13:34:46;14.32;;;7.22;;
42200;SDS011;27869;51.442;7.540;2023-06-22T13:37:12;14.48;;;7.15;;
42200;SDS011;27869;51.442;7.540;2023-06-22T13:39:39;15.05;;;7.47;;
42200;SDS011;27869;51.442;7.540;2023-06-22T13:42:06;15.07;;;7.82;;
42200;SDS011;27869;51.442;7.540;2023-06-22T13:44:35;16.58;;;8.13;;
42200;SDS011;27869;51.442;7.540;2023-06-22T13:47:02;17.35;;;9.27;;
42200;SDS011;27869;51.442;7.540;2023-06-22T13:49:30;15.70;;;8.25;;
42200;SDS011;27869;51.442;7.540;2023-06-22T13:51:57;16.55;;;8.38;;
42200;SDS011;27869;51.442;7.540;2023-06-22T13:54:24;16.10;;;8.52;;
42200;SDS011;27869;51.442;7.540;2023-06-22T13:56:51;16.85;;;8.75;;
42200;SDS011;27869;51.442;7.540;2023-06-22T13:59:18;17.67;;;8.48;;
42200;SDS011;27869;51.442;7.540;2023-06-22T14:01:47;17.70;;;7.82;;
42200;SDS011;27869;51.442;7.540;2023-06-22T14:04:13;16.00;;;7.97;;
42200;SDS011;27869;51.442;7.540;2023-06-22T14:06:40;14.63;;;7.68;;
42200;SDS011;27869;51.442;7.540;2023-06-22T14:09:07;15.50;;;7.78;;
42200;SDS011;27869;51.442;7.540;2023-06-22T14:11:34;16.30;;;7.03;;
42200;SDS011;27869;51.442;7.540;2023-06-22T14:14:01;13.75;;;6.53;;
42200;SDS011;27869;51.442;7.540;2023-06-22T14:16:28;14.38;;;6.85;;
42200;SDS011;27869;51.442;7.540;2023-06-22T14:18:56;14.23;;;7.38;;
42200;SDS011;27869;51.442;7.540;2023-06-22T14:21:23;14.30;;;7.03;;
42200;SDS011;27869;51.442;7.540;2023-06-22T14:23:50;16.27;;;6.63;;
42200;SDS011;27869;51.442;7.540;2023-06-22T14:26:16;16.00;;;7.80;;
42200;SDS011;27869;51.442;7.540;2023-06-22T14:28:44;14.38;;;7.00;;
42200;SDS011;27869;51.442;7.540;2023-06-22T14:31:13;15.20;;;7.35;;
42200;SDS011;27869;51.442;7.540;2023-06-22T14:33:43;17.30;;;7.63;;
42200;SDS011;27869;51.442;7.540;2023-06-22T14:36:13;14.55;;;7.13;;
42200;SDS011;27869;51.442;7.540;2023-06-22T14:38:40;14.45;;;7.22;;
42200;SDS011;27869;51.442;7.540;2023-06-22T14:41:07;14.20;;;7.55;;
42200;SDS011;27869;51.442;7.540;2023-06-22T14:43:34;16.38;;;7.80;;